Time;durP1;ratioP1;P1;durP2;ratioP2;P2;SDS_P1;SDS_P2;PMS_P1;PMS_P2;Temp;Humidity;BMP_temperature;BMP_pressure;BME280_temperature;BME280_humidity;BME280_pressure;Samples;Min_cycle;Max_cycle;Signal;HPM_P1;HPM_P2
2023/09/11 00:00:15;;;;;;;14.30;8.30;;;;;;;18.98;70.53;98231.94;4414313;32;20102;-80
2023/09/11 00:02:42;;;;;;;14.43;7.45;;;;;;;18.63;72.03;98231.88;4414294;32;20086;-79
2023/09/11 00:05:09;;;;;;;13.52;7.30;;;;;;;18.63;72.14;98231.88;4413848;32;20117;-80
2023/09/11 00:07:36;;;;;;;14.85;7.43;;;;;;;18.68;71.64;98227.16;4414233;32;20109;-80
2023/09/11 00:10:04;;;;;;;13.98;7.97;;;;;;;18.56;71.66;98225.41;4414139;32;20089;-80
2023/09/11 00:12:31;;;;;;;16.62;7.57;;;;;;;18.66;70.81;98226.44;4413789;32;20449;-80
2023/09/11 00:14:58;;;;;;;19.90;8.18;;;;;;;18.48;71.96;98222.50;4414226;32;20117;-80
2023/09/11 00:17:25;;;;;;;14.82;8.23;;;;;;;18.61;71.10;98228.53;4413743;32;20066;-79
2023/09/11 00:19:53;;;;;;;16.52;8.10;;;;;;;18.52;71.32;98221.38;4413682;32;20485;-80
2023/09/11 00:22:20;;;;;;;17.62;7.95;;;;;;;18.58;71.07;98218.28;4413687;32;20145;-80
2023/09/11 00:24:47;;;;;;;14.18;8.07;;;;;;;18.57;71.31;98221.84;4413326;32;20109;-79
2023/09/11 00:27:14;;;;;;;13.13;7.85;;;;;;;18.61;70.88;98225.94;4413221;32;20838;-80
2023/09/11 00:29:41;;;;;;;15.82;7.95;;;;;;;18.53;70.98;98223.03;4413024;32;20109;-80
2023/09/11 00:32:08;;;;;;;15.45;8.32;;;;;;;18.60;70.41;98218.19;4413361;32;20101;-80
2023/09/11 00:34:35;;;;;;;13.13;7.30;;;;;;;18.75;69.96;98223.16;4412926;32;20437;-80
2023/09/11 00:37:02;;;;;;;13.75;7.57;;;;;;;18.73;68.88;98213.78;4412970;32;20112;-80
2023/09/11 00:39:29;;;;;;;14.73;8.10;;;;;;;18.89;68.35;98216.91;4413276;32;20506;-80
2023/09/11 00:41:56;;;;;;;14.73;7.75;;;;;;;18.83;68.30;98219.16;4412719;32;20054;-80
2023/09/11 00:44:24;;;;;;;14.70;8.23;;;;;;;18.66;69.53;98221.22;4412728;32;20138;-79
2023/09/11 00:46:51;;;;;;;13.48;7.55;;;;;;;18.61;70.38;98212.00;4413023;32;20397;-80
2023/09/11 00:49:20;;;;;;;13.82;7.87;;;;;;;18.71;69.79;98211.25;4413070;32;20401;-80
2023/09/11 00:51:49;;;;;;;16.35;8.77;;;;;;;18.98;68.93;98204.94;4413040;32;20082;-80
2023/09/11 00:54:21;;;;;;;13.10;7.95;;;;;;;18.98;69.18;98199.72;4399011;32;20103;-79
2023/09/11 00:56:48;;;;;;;16.90;7.75;;;;;;;18.82;70.86;98205.25;4413047;32;20097;-80
2023/09/11 00:59:16;;;;;;;14.32;8.18;;;;;;;18.59;71.57;98203.44;4399735;32;20358;-80
2023/09/11 01:01:44;;;;;;;14.35;8.00;;;;;;;18.78;71.29;98206.41;4398848;32;20109;-79
2023/09/11 01:04:11;;;;;;;16.75;8.32;;;;;;;18.80;71.22;98199.28;4413483;32;20121;-80
2023/09/11 01:06:38;;;;;;;14.77;8.25;;;;;;;18.95;70.58;98194.72;4399775;32;20115;-79
2023/09/11 01:09:05;;;;;;;14.45;8.50;;;;;;;18.81;71.37;98195.72;4398594;32;20535;-80
2023/09/11 01:11:32;;;;;;;15.55;8.18;;;;;;;18.95;70.98;98195.56;4399350;32;20173;-80
2023/09/11 01:13:59;;;;;;;17.37;8.15;;;;;;;19.01;70.62;98197.69;4412974;32;20101;-80
2023/09/11 01:16:28;;;;;;;15.02;8.23;;;;;;;18.85;70.67;98198.97;4412778;32;20109;-80
2023/09/11 01:19:06;;;;;;;14.65;8.30;;;;;;;18.53;71.65;98196.06;4391722;32;251007;-80
2023/09/11 01:21:57;;;;;;;16.55;8.38;;;;;;;18.61;71.45;98196.31;4399640;32;20062;-80
2023/09/11 01:24:32;;;;;;;15.52;8.27;;;;;;;18.78;71.61;98196.78;4413025;32;20091;-79
2023/09/11 01:27:32;;;;;;;14.87;8.07;;;;;;;18.81;71.72;98197.50;4399596;32;20102;-80
2023/09/11 01:29:59;;;;;;;18.67;7.72;;;;;;;19.02;71.00;98191.50;4399687;32;20097;-79
2023/09/11 01:32:26;;;;;;;14.18;8.57;;;;;;;18.83;70.44;98191.25;4400237;32;20154;-79
2023/09/11 01:34:53;;;;;;;13.90;7.90;;;;;;;18.69;71.37;98188.78;4400362;32;20458;-80
2023/09/11 01:37:20;;;;;;;15.02;8.05;;;;;;;18.83;70.64;98193.03;4413124;32;20153;-80
2023/09/11 01:39:48;;;;;;;14.35;7.78;;;;;;;18.53;72.53;98186.44;4413299;32;20145;-80
2023/09/11 01:42:19;;;;;;;14.75;8.35;;;;;;;18.47;72.81;98182.50;4412765;32;20124;-80
2023/09/11 01:44:47;;;;;;;14.75;7.90;;;;;;;18.42;72.51;98189.00;4413779;32;20506;-79
2023/09/11 01:47:18;;;;;;;16.37;8.60;;;;;;;18.35;72.69;98188.59;4400014;32;20074;-79
2023/09/11 01:49:45;;;;;;;14.65;8.48;;;;;;;18.19;73.45;98193.28;4399420;32;20106;-80
2023/09/11 01:52:12;;;;;;;15.43;8.68;;;;;;;18.13;73.01;98180.66;4413007;32;20168;-80
2023/09/11 01:54:39;;;;;;;15.80;9.02;;;;;;;18.16;72.80;98185.63;4413172;32;20145;-79
2023/09/11 01:57:07;;;;;;;14.65;8.93;;;;;;;18.19;72.92;98182.84;4399242;32;20105;-79
2023/09/11 01:59:34;;;;;;;15.45;8.15;;;;;;;18.13;73.37;98184.09;4413032;32;20090;-80
2023/09/11 02:02:01;;;;;;;14.52;8.57;;;;;;;18.31;73.12;98188.94;4399387;32;20550;-80
2023/09/11 02:04:28;;;;;;;14.77;8.70;;;;;;;18.54;72.63;98187.28;4412569;32;20080;-80
2023/09/11 02:06:55;;;;;;;13.60;7.78;;;;;;;18.22;74.49;98185.22;4413043;32;20161;-79
2023/09/11 02:09:22;;;;;;;15.32;8.35;;;;;;;18.48;73.80;98188.56;4412672;32;20133;-79
2023/09/11 02:11:49;;;;;;;15.35;8.55;;;;;;;18.72;71.80;98185.97;4413318;32;20149;-79
2023/09/11 02:14:16;;;;;;;13.70;7.97;;;;;;;18.66;71.87;98186.41;4413364;32;20054;-79
2023/09/11 02:16:43;;;;;;;14.32;8.60;;;;;;;18.53;71.87;98180.41;4412931;32;20346;-80
2023/09/11 02:19:10;;;;;;;14.90;8.38;;;;;;;18.26;73.66;98189.25;4412554;32;20097;-80
2023/09/11 02:21:37;;;;;;;15.07;8.18;;;;;;;18.12;74.01;98186.81;4411919;32;20471;-80
2023/09/11 02:24:05;;;;;;;16.67;9.25;;;;;;;18.32;73.22;98188.84;4413122;32;20469;-80
2023/09/11 02:26:32;;;;;;;15.90;9.07;;;;;;;18.16;74.39;98189.09;4412760;32;20533;-79
2023/09/11 02:28:59;;;;;;;17.58;8.88;;;;;;;17.82;76.00;98185.41;4413063;32;20069;-80
2023/09/11 02:31:26;;;;;;;16.05;8.82;;;;;;;17.87;76.18;98178.13;4412738;32;20096;-80
2023/09/11 02:33:54;;;;;;;14.30;8.52;;;;;;;18.06;74.97;98175.00;4412223;32;20085;-79
2023/09/11 02:36:21;;;;;;;17.48;9.10;;;;;;;18.23;75.12;98184.28;4412722;32;20116;-80
2023/09/11 02:38:47;;;;;;;16.37;9.07;;;;;;;17.90;76.95;98177.88;4412571;32;20405;-80
2023/09/11 02:41:14;;;;;;;14.43;8.38;;;;;;;18.14;76.33;98182.31;4412352;32;20598;-79
2023/09/11 02:43:41;;;;;;;14.10;8.85;;;;;;;18.50;74.54;98184.91;4412676;32;20507;-80
2023/09/11 02:46:08;;;;;;;17.95;8.50;;;;;;;18.75;72.44;98186.56;4412701;32;20101;-80
2023/09/11 02:48:42;;;;;;;14.82;8.30;;;;;;;18.47;73.52;98185.09;4412879;32;20101;-79
2023/09/11 02:51:10;;;;;;;14.32;8.52;;;;;;;18.40;73.53;98180.47;4413090;32;20086;-79
2023/09/11 02:53:37;;;;;;;15.10;9.20;;;;;;;18.29;73.64;98182.97;4398958;32;20138;-79
2023/09/11 02:56:05;;;;;;;13.98;8.43;;;;;;;17.90;75.12;98175.28;4412836;32;20151;-79
2023/09/11 02:58:32;;;;;;;14.57;8.35;;;;;;;18.23;73.89;98178.22;4399154;32;20504;-80
2023/09/11 03:01:03;;;;;;;14.32;8.73;;;;;;;18.16;74.00;98170.81;4412492;32;20416;-79
2023/09/11 03:03:30;;;;;;;16.67;9.13;;;;;;;17.43;78.14;98168.09;4399364;32;20075;-80
2023/09/11 03:06:00;;;;;;;15.23;8.68;;;;;;;18.09;75.24;98174.00;4399491;32;20116;-79
2023/09/11 03:08:27;;;;;;;16.20;8.77;;;;;;;17.96;74.81;98165.34;4412533;32;20098;-79
2023/09/11 03:11:02;;;;;;;15.98;9.13;;;;;;;17.86;75.53;98176.44;4398911;32;20086;-80
2023/09/11 03:13:29;;;;;;;14.85;9.02;;;;;;;17.77;76.37;98176.25;4413184;32;20138;-79
2023/09/11 03:15:56;;;;;;;17.10;9.18;;;;;;;17.79;76.16;98171.75;4398807;32;20121;-79
2023/09/11 03:18:23;;;;;;;15.52;8.90;;;;;;;17.97;75.34;98170.47;4412236;32;20086;-79
2023/09/11 03:20:56;;;;;;;15.10;9.00;;;;;;;17.79;77.13;98172.59;4412505;32;20086;-79
2023/09/11 03:23:23;;;;;;;15.05;8.65;;;;;;;17.74;77.58;98177.28;4411829;32;20534;-79
2023/09/11 03:25:50;;;;;;;17.12;9.02;;;;;;;18.23;75.98;98173.00;4411803;32;20098;-79
2023/09/11 03:28:17;;;;;;;16.05;8.95;;;;;;;17.96;77.20;98168.78;4411391;32;20098;-80
2023/09/11 03:30:44;;;;;;;15.43;9.50;;;;;;;17.62;79.73;98170.28;4411744;32;20508;-80
2023/09/11 03:33:11;;;;;;;15.38;9.00;;;;;;;17.67;79.91;98169.97;4416558;32;20144;-79
2023/09/11 03:35:38;;;;;;;17.42;9.18;;;;;;;18.10;78.51;98176.47;4416807;32;20120;-80
2023/09/11 03:38:05;;;;;;;17.42;9.52;;;;;;;18.17;76.41;98177.69;4417514;32;20090;-79
2023/09/11 03:40:32;;;;;;;14.77;8.73;;;;;;;18.29;75.09;98178.63;4417431;32;20114;-79
2023/09/11 03:42:59;;;;;;;18.23;9.43;;;;;;;17.92;76.14;98169.94;4417251;32;20695;-80
2023/09/11 03:45:26;;;;;;;15.82;9.13;;;;;;;17.73;76.58;98172.16;4417106;32;20113;-79
2023/09/11 03:47:53;;;;;;;15.95;9.02;;;;;;;18.21;74.67;98176.53;4417106;32;20112;-79
2023/09/11 03:50:20;;;;;;;17.85;9.15;;;;;;;18.31;74.15;98166.28;4416729;32;20101;-79
2023/09/11 03:52:47;;;;;;;16.92;9.40;;;;;;;18.13;74.81;98163.19;4416963;32;20082;-79
2023/09/11 03:55:14;;;;;;;15.85;8.60;;;;;;;18.15;75.14;98158.69;4416737;32;20169;-79
2023/09/11 03:57:41;;;;;;;15.13;9.13;;;;;;;18.32;74.69;98167.09;4416374;32;20104;-79
2023/09/11 04:00:10;;;;;;;15.40;9.38;;;;;;;18.17;76.17;98162.03;4416734;32;20140;-80
2023/09/11 04:02:38;;;;;;;15.63;8.48;;;;;;;17.82;78.64;98150.66;4416773;32;20448;-79
2023/09/11 04:05:05;;;;;;;21.42;9.48;;;;;;;17.76;79.96;98161.53;4403086;32;20106;-79
2023/09/11 04:07:32;;;;;;;15.38;9.13;;;;;;;17.62;80.07;98159.84;4416992;32;20114;-80
2023/09/11 04:09:59;;;;;;;15.60;9.50;;;;;;;17.89;78.99;98149.28;4416516;32;20500;-79
2023/09/11 04:12:26;;;;;;;21.37;10.10;;;;;;;18.20;79.29;98151.38;4415950;32;20157;-79
2023/09/11 04:14:54;;;;;;;17.10;9.60;;;;;;;18.36;78.76;98152.88;4416350;32;20102;-79
2023/09/11 04:17:21;;;;;;;19.67;9.88;;;;;;;18.30;75.93;98150.72;4416110;32;20460;-79
2023/09/11 04:19:48;;;;;;;15.90;9.20;;;;;;;18.31;76.16;98153.22;4416702;32;20086;-79
2023/09/11 04:22:15;;;;;;;14.75;8.70;;;;;;;18.29;77.06;98147.28;4416807;32;20115;-79
2023/09/11 04:24:42;;;;;;;14.40;8.80;;;;;;;18.12;77.87;98148.47;4416275;32;20120;-79
2023/09/11 04:27:09;;;;;;;18.50;10.07;;;;;;;18.00;78.07;98151.13;4416706;32;20114;-80
2023/09/11 04:29:36;;;;;;;20.35;10.43;;;;;;;17.66;79.44;98147.44;4416780;32;20478;-80
2023/09/11 04:32:03;;;;;;;18.42;10.50;;;;;;;17.79;78.84;98145.66;4416390;32;20077;-79
2023/09/11 04:34:31;;;;;;;17.70;10.23;;;;;;;17.78;78.29;98146.59;4416895;32;20093;-79
2023/09/11 04:36:58;;;;;;;22.05;9.98;;;;;;;17.71;79.01;98146.19;4416989;32;20089;-79
2023/09/11 04:39:25;;;;;;;16.83;9.68;;;;;;;18.06;77.09;98146.28;4416300;32;20121;-79
2023/09/11 04:41:52;;;;;;;16.58;9.93;;;;;;;17.83;78.53;98140.09;4417129;32;20082;-80
2023/09/11 04:44:19;;;;;;;19.67;9.82;;;;;;;17.73;79.13;98139.09;4413639;32;20153;-79
2023/09/11 04:46:46;;;;;;;19.90;10.38;;;;;;;17.55;80.91;98135.97;4413003;32;20105;-80
2023/09/11 04:49:13;;;;;;;18.75;10.13;;;;;;;18.01;79.14;98140.59;4414088;32;20131;-79
2023/09/11 04:51:40;;;;;;;22.92;10.65;;;;;;;18.32;77.11;98141.00;4413844;32;20108;-79
2023/09/11 04:54:07;;;;;;;15.88;9.65;;;;;;;18.32;76.07;98133.97;4414708;32;20092;-80
2023/09/11 04:56:34;;;;;;;16.48;9.10;;;;;;;18.02;78.24;98136.19;4416923;32;20063;-79
2023/09/11 04:59:01;;;;;;;23.27;9.25;;;;;;;18.41;76.37;98142.94;4416611;32;20445;-79
2023/09/11 05:01:27;;;;;;;33.80;9.57;;;;;;;18.76;72.97;98148.19;4416227;32;20137;-79
2023/09/11 05:03:54;;;;;;;30.80;9.75;;;;;;;18.64;74.02;98138.63;4416154;32;20110;-80
2023/09/11 05:06:22;;;;;;;18.95;8.82;;;;;;;18.29;76.25;98146.41;4416793;32;20106;-79
2023/09/11 05:08:49;;;;;;;17.35;8.10;;;;;;;19.04;72.65;98139.13;4416719;32;20054;-79
2023/09/11 05:11:36;;;;;;;16.15;8.32;;;;;;;19.46;72.35;98145.47;4416980;32;20066;-79
2023/09/11 05:14:04;;;;;;;15.73;8.68;;;;;;;20.19;68.90;98150.16;4414966;32;20114;-80
2023/09/11 05:16:31;;;;;;;14.93;7.75;;;;;;;20.96;65.32;98150.03;4414773;32;20073;-79
2023/09/11 05:18:58;;;;;;;13.10;7.25;;;;;;;21.76;61.88;98148.50;4414087;32;20094;-80
2023/09/11 05:21:25;;;;;;;12.57;7.15;;;;;;;22.32;59.32;98150.59;4414485;32;20082;-79
2023/09/11 05:23:52;;;;;;;14.48;6.70;;;;;;;22.91;56.62;98147.03;4414457;32;20090;-80
2023/09/11 05:26:20;;;;;;;12.77;7.15;;;;;;;23.38;55.08;98143.44;4415253;32;20058;-80
2023/09/11 05:28:47;;;;;;;13.38;7.12;;;;;;;24.03;54.33;98148.75;4414582;32;20058;-80
2023/09/11 05:31:14;;;;;;;11.85;7.20;;;;;;;24.52;52.54;98152.75;4414167;32;20078;-80
2023/09/11 05:33:41;;;;;;;15.23;7.25;;;;;;;25.23;50.81;98151.03;4414442;32;20400;-80
2023/09/11 05:36:08;;;;;;;12.45;6.85;;;;;;;26.28;47.98;98157.78;4414268;32;20167;-80
2023/09/11 05:38:35;;;;;;;14.57;6.82;;;;;;;26.89;46.21;98156.53;4414441;32;20157;-80
2023/09/11 05:41:02;;;;;;;13.25;6.68;;;;;;;27.39;45.28;98157.19;4400965;32;20368;-80
2023/09/11 05:43:29;;;;;;;13.20;6.47;;;;;;;27.99;44.39;98155.03;4401143;32;20094;-80
2023/09/11 05:45:57;;;;;;;13.82;6.68;;;;;;;28.62;43.16;98159.34;4414440;32;20093;-80
2023/09/11 05:48:24;;;;;;;13.30;6.50;;;;;;;29.38;41.16;98158.34;4400883;32;20876;-80
2023/09/11 05:51:02;;;;;;;15.10;6.62;;;;;;;30.19;39.88;98168.06;4403777;32;20367;-81
2023/09/11 05:53:29;;;;;;;13.60;6.25;;;;;;;30.59;38.77;98165.00;4412363;32;20160;-80
2023/09/11 05:55:57;;;;;;;10.27;6.05;;;;;;;30.59;38.26;98170.34;4412443;32;20345;-81
2023/09/11 05:58:25;;;;;;;10.75;6.05;;;;;;;30.34;37.87;98159.22;4401553;32;20388;-80
2023/09/11 06:00:53;;;;;;;15.13;6.50;;;;;;;30.79;37.92;98166.06;4402889;32;20110;-81
2023/09/11 06:03:20;;;;;;;13.15;6.37;;;;;;;30.98;38.01;98162.75;4416937;32;20074;-80
2023/09/11 06:05:52;;;;;;;12.37;6.07;;;;;;;31.71;36.92;98173.94;4418628;32;20076;-81
2023/09/11 06:08:19;;;;;;;12.73;5.95;;;;;;;32.81;35.30;98170.22;4420447;32;20094;-81
2023/09/11 06:10:46;;;;;;;13.40;6.47;;;;;;;33.02;35.00;98175.41;4421081;32;20070;-81
2023/09/11 06:13:13;;;;;;;11.57;6.40;;;;;;;33.28;34.02;98174.56;4417066;32;20108;-81
2023/09/11 06:15:40;;;;;;;10.38;5.78;;;;;;;33.78;33.68;98180.28;4418494;32;20157;-80
2023/09/11 06:18:07;;;;;;;14.95;6.37;;;;;;;33.85;33.03;98178.41;4417942;32;20090;-81
2023/09/11 06:20:34;;;;;;;12.30;6.40;;;;;;;34.12;32.32;98178.31;4416965;32;20082;-81
2023/09/11 06:23:02;;;;;;;11.23;5.85;;;;;;;34.29;32.52;98178.66;4417745;32;20105;-82
2023/09/11 06:25:29;;;;;;;11.60;6.20;;;;;;;34.37;32.50;98178.44;4412997;32;20094;-80
2023/09/11 06:27:57;;;;;;;11.65;6.10;;;;;;;34.72;32.25;98179.66;4413692;32;20476;-80
2023/09/11 06:30:24;;;;;;;11.52;5.90;;;;;;;35.12;31.40;98181.28;4412922;32;20197;-80
2023/09/11 06:32:51;;;;;;;10.55;5.87;;;;;;;34.78;32.14;98175.31;4417145;32;20098;-80
2023/09/11 06:35:18;;;;;;;10.80;6.07;;;;;;;34.47;31.26;98174.28;4415233;32;20116;-81
2023/09/11 06:37:45;;;;;;;11.15;6.05;;;;;;;34.06;31.65;98180.00;4409751;32;20098;-81
2023/09/11 06:40:12;;;;;;;11.57;5.87;;;;;;;33.94;31.18;98169.16;4409938;32;20149;-81
2023/09/11 06:42:39;;;;;;;11.93;5.87;;;;;;;33.90;31.31;98178.63;4409867;32;20433;-82
2023/09/11 06:45:06;;;;;;;13.05;6.18;;;;;;;33.85;31.55;98169.56;4395720;32;20425;-81
2023/09/11 06:47:33;;;;;;;15.90;6.12;;;;;;;34.23;31.07;98169.63;4396178;32;20089;-81
2023/09/11 06:50:00;;;;;;;12.27;6.20;;;;;;;34.34;31.00;98168.12;4409654;32;20070;-79
2023/09/11 06:52:27;;;;;;;14.52;6.20;;;;;;;34.29;31.16;98173.31;4409410;32;20106;-80
2023/09/11 06:54:54;;;;;;;15.90;6.40;;;;;;;34.64;30.56;98169.22;4409539;32;20089;-81
2023/09/11 06:57:22;;;;;;;12.15;6.30;;;;;;;34.59;30.77;98181.63;4409774;32;20100;-82
2023/09/11 06:59:49;;;;;;;15.85;6.32;;;;;;;34.22;31.55;98178.69;4409282;32;20083;-79
2023/09/11 07:02:16;;;;;;;10.98;6.32;;;;;;;34.44;31.85;98179.22;4396187;32;20152;-79
2023/09/11 07:04:43;;;;;;;10.35;5.75;;;;;;;34.07;32.10;98178.97;4409503;32;20090;-79
2023/09/11 07:07:10;;;;;;;12.52;5.97;;;;;;;34.38;32.45;98174.75;4408581;32;20480;-79
2023/09/11 07:09:37;;;;;;;15.25;5.82;;;;;;;34.62;32.07;98173.16;4409613;32;20136;-81
2023/09/11 07:12:04;;;;;;;15.43;5.85;;;;;;;34.67;31.53;98176.84;4409492;32;20102;-80
2023/09/11 07:14:31;;;;;;;11.10;5.97;;;;;;;34.38;31.81;98172.06;4409274;32;20147;-81
2023/09/11 07:17:04;;;;;;;13.30;6.00;;;;;;;34.26;32.44;98190.62;4410287;32;20086;-81
2023/09/11 07:19:31;;;;;;;16.40;6.07;;;;;;;34.17;32.19;98182.03;4410709;32;20074;-80
2023/09/11 07:21:58;;;;;;;12.13;5.43;;;;;;;34.08;32.56;98185.16;4409921;32;20557;-80
2023/09/11 07:24:25;;;;;;;10.38;5.87;;;;;;;33.88;32.80;98174.50;4409690;32;20090;-80
2023/09/11 07:26:52;;;;;;;10.18;5.80;;;;;;;34.05;32.84;98180.22;4409859;32;20598;-81
2023/09/11 07:29:24;;;;;;;11.00;5.70;;;;;;;33.81;32.89;98179.84;4410774;32;20443;-81
2023/09/11 07:31:51;;;;;;;16.62;5.90;;;;;;;33.96;32.86;98173.47;4410124;32;20102;-78
2023/09/11 07:34:18;;;;;;;11.30;5.72;;;;;;;34.65;31.73;98178.06;4409091;32;20159;-78
2023/09/11 07:36:45;;;;;;;9.98;5.43;;;;;;;34.72;31.13;98178.84;4409437;32;20165;-79
2023/09/11 07:39:12;;;;;;;10.65;5.62;;;;;;;34.73;30.39;98175.12;4409205;32;20067;-79
2023/09/11 07:41:39;;;;;;;9.70;5.30;;;;;;;34.07;31.91;98184.31;4409154;32;20106;-80
2023/09/11 07:44:06;;;;;;;14.45;5.93;;;;;;;34.93;31.25;98180.37;4409328;32;20105;-79
2023/09/11 07:46:33;;;;;;;11.52;5.65;;;;;;;35.18;30.39;98183.06;4409318;32;20098;-80
2023/09/11 07:49:00;;;;;;;11.35;5.40;;;;;;;33.82;31.70;98178.84;4408647;32;20559;-80
2023/09/11 07:51:27;;;;;;;11.43;5.45;;;;;;;34.95;29.60;98175.62;4409031;32;20086;-80
2023/09/11 07:53:55;;;;;;;8.68;5.15;;;;;;;34.80;30.09;98182.09;4409035;32;20120;-80
2023/09/11 07:56:22;;;;;;;11.65;5.00;;;;;;;34.35;30.65;98175.12;4408652;32;20106;-80
2023/09/11 07:58:50;;;;;;;14.73;5.60;;;;;;;34.49;29.91;98177.56;4408891;32;20110;-81
2023/09/11 08:01:25;;;;;;;10.43;5.30;;;;;;;35.39;28.44;98179.19;4408917;32;20157;-80
2023/09/11 08:03:52;;;;;;;10.20;5.23;;;;;;;34.40;29.50;98173.47;4408586;32;20205;-80
2023/09/11 08:06:20;;;;;;;9.75;4.95;;;;;;;35.34;28.81;98172.59;4408925;32;20086;-80
2023/09/11 08:08:47;;;;;;;10.32;5.37;;;;;;;34.72;29.62;98170.81;4408462;32;20082;-80
2023/09/11 08:11:19;;;;;;;11.82;5.30;;;;;;;34.66;29.78;98161.75;4408773;32;20098;-80
2023/09/11 08:13:46;;;;;;;30.37;6.53;;;;;;;33.83;30.57;98167.09;4408743;32;20113;-80
2023/09/11 08:16:16;;;;;;;12.65;5.03;;;;;;;33.09;31.91;98162.88;4408686;32;20078;-81
2023/09/11 08:18:44;;;;;;;12.98;5.28;;;;;;;34.61;30.00;98163.47;4410678;32;20066;-82
2023/09/11 08:21:12;;;;;;;10.60;5.03;;;;;;;35.70;28.46;98171.00;4411287;32;20099;-82
2023/09/11 08:23:43;;;;;;;9.40;4.95;;;;;;;35.92;27.71;98172.22;4410701;32;20114;-82
2023/09/11 08:26:10;;;;;;;10.27;5.45;;;;;;;35.49;28.50;98169.59;4397608;32;20087;-82
2023/09/11 08:28:37;;;;;;;10.02;5.30;;;;;;;35.98;27.65;98172.37;4411113;32;20404;-82
2023/09/11 08:31:05;;;;;;;9.55;5.15;;;;;;;36.17;27.14;98165.97;4396823;32;20119;-83
2023/09/11 08:33:32;;;;;;;11.07;5.28;;;;;;;35.41;28.29;98171.72;4411007;32;20543;-83
2023/09/11 08:36:19;;;;;;;19.40;5.82;;;;;;;35.77;28.28;98170.94;4411130;32;20102;-83
2023/09/11 08:38:47;;;;;;;10.02;4.45;;;;;;;36.79;26.75;98171.87;4410969;32;20078;-84
2023/09/11 08:41:14;;;;;;;10.80;4.10;;;;;;;36.39;24.80;98166.31;4412944;32;20079;-83
2023/09/11 08:43:43;;;;;;;9.45;4.12;;;;;;;35.82;25.31;98166.53;4411231;32;20094;-81
2023/09/11 08:46:14;;;;;;;11.00;4.60;;;;;;;35.33;25.71;98167.47;4413477;32;20054;-82
2023/09/11 08:48:44;;;;;;;9.52;4.10;;;;;;;35.13;26.61;98164.13;4413183;32;20077;-82
2023/09/11 08:51:34;;;;;;;9.30;4.00;;;;;;;34.94;26.21;98160.56;4411044;32;20102;-83
2023/09/11 08:54:04;;;;;;;9.80;4.32;;;;;;;34.37;26.86;98168.53;4412383;32;20138;-81
2023/09/11 08:56:31;;;;;;;10.63;4.78;;;;;;;34.51;27.67;98169.28;4412271;32;20120;-81
2023/09/11 08:58:59;;;;;;;9.40;4.50;;;;;;;33.98;26.53;98161.50;4398052;32;20082;-81
2023/09/11 09:01:26;;;;;;;7.90;4.25;;;;;;;34.14;26.88;98165.56;4397636;32;20110;-82
2023/09/11 09:03:54;;;;;;;11.88;4.95;;;;;;;34.81;26.27;98158.78;4397423;32;20428;-82
2023/09/11 09:06:22;;;;;;;10.68;4.53;;;;;;;35.12;25.84;98163.31;4397092;32;20101;-82
2023/09/11 09:08:49;;;;;;;12.55;4.45;;;;;;;34.50;25.96;98154.25;4410405;32;20145;-81
2023/09/11 09:11:18;;;;;;;9.63;4.40;;;;;;;34.28;26.34;98158.28;4396812;32;20126;-82
2023/09/11 09:13:45;;;;;;;11.48;4.53;;;;;;;34.32;26.49;98160.31;4398804;32;20081;-83
2023/09/11 09:16:12;;;;;;;10.98;4.80;;;;;;;34.58;26.36;98156.69;4413079;32;20098;-83
2023/09/11 09:18:47;;;;;;;10.63;4.68;;;;;;;34.15;26.96;98164.53;4411046;32;20161;-82
2023/09/11 09:21:20;;;;;;;13.43;4.57;;;;;;;34.25;27.26;98158.72;4410409;32;20150;-82
2023/09/11 09:23:47;;;;;;;11.25;4.35;;;;;;;34.51;27.29;98153.22;4409993;32;20094;-80
2023/09/11 09:26:14;;;;;;;10.10;4.40;;;;;;;34.44;26.67;98155.94;4410324;32;20112;-83
2023/09/11 09:28:44;;;;;;;10.85;4.25;;;;;;;34.94;26.76;98153.34;4413938;32;20126;-81
2023/09/11 09:31:21;;;;;;;12.52;4.97;;;;;;;34.29;26.56;98155.38;4413877;32;20105;-81
2023/09/11 09:33:51;;;;;;;11.35;5.00;;;;;;;33.99;28.73;98147.09;4411464;32;20167;-80
2023/09/11 09:36:18;;;;;;;12.43;4.90;;;;;;;34.34;28.89;98152.03;4413844;32;20099;-83
2023/09/11 09:38:45;;;;;;;10.35;4.32;;;;;;;34.68;27.30;98149.00;4416235;32;20154;-81
2023/09/11 09:41:13;;;;;;;12.05;4.97;;;;;;;34.09;27.92;98142.09;4417430;32;20074;-82
2023/09/11 09:43:39;;;;;;;12.18;5.07;;;;;;;33.45;28.93;98145.59;4408592;32;20755;-81
2023/09/11 09:46:18;;;;;;;13.55;5.60;;;;;;;33.37;29.72;98143.13;4416715;32;20089;-82
2023/09/11 09:48:45;;;;;;;12.57;4.87;;;;;;;34.34;28.96;98139.47;4417914;32;20346;-83
2023/09/11 09:51:13;;;;;;;12.37;4.90;;;;;;;34.54;28.74;98135.88;4412949;32;20825;-83
2023/09/11 09:53:41;;;;;;;9.80;4.68;;;;;;;34.66;27.55;98131.47;4397406;32;20121;-84
2023/09/11 09:56:10;;;;;;;11.32;4.55;;;;;;;34.19;27.83;98133.59;4410038;32;20093;-84
2023/09/11 09:58:45;;;;;;;9.73;4.75;;;;;;;34.74;27.32;98133.87;4411020;32;20105;-84
2023/09/11 10:01:16;;;;;;;11.77;4.85;;;;;;;34.67;27.52;98131.28;4411338;32;20655;-85
2023/09/11 10:03:45;;;;;;;10.00;4.87;;;;;;;34.68;28.15;98140.13;4410529;32;20135;-83
2023/09/11 10:06:18;;;;;;;10.57;4.60;;;;;;;34.87;27.69;98131.09;4410500;32;20090;-84
2023/09/11 10:09:05;;;;;;;10.00;4.80;;;;;;;34.88;27.58;98130.12;4410603;32;20129;-84
2023/09/11 10:11:33;;;;;;;9.35;4.65;;;;;;;34.82;28.77;98124.78;4410188;32;20095;-83
2023/09/11 10:14:02;;;;;;;11.25;4.90;;;;;;;35.15;27.91;98129.88;4396399;32;20106;-83
2023/09/11 10:16:32;;;;;;;10.15;5.00;;;;;;;34.41;29.35;98121.56;4409766;32;20098;-84
2023/09/11 10:19:00;;;;;;;10.13;4.85;;;;;;;34.14;28.42;98118.19;4409873;32;20073;-83
2023/09/11 10:21:28;;;;;;;9.23;4.70;;;;;;;34.21;29.03;98120.81;4410185;32;20142;-84
2023/09/11 10:23:55;;;;;;;9.65;4.78;;;;;;;34.09;29.91;98114.50;4396059;32;20173;-84
2023/09/11 10:26:43;;;;;;;14.18;5.05;;;;;;;34.41;29.25;98118.06;4410013;32;20082;-83
2023/09/11 10:29:11;;;;;;;9.57;5.07;;;;;;;34.41;28.41;98113.50;4397025;32;20083;-81
2023/09/11 10:31:53;;;;;;;11.57;5.40;;;;;;;34.42;29.19;98104.44;4397079;32;20102;-81
2023/09/11 10:34:20;;;;;;;10.52;5.10;;;;;;;34.05;30.32;98102.59;4396830;32;20183;-82
2023/09/11 10:36:55;;;;;;;10.90;5.07;;;;;;;34.69;28.44;98101.56;4399682;32;20173;-83
2023/09/11 10:39:22;;;;;;;9.48;4.60;;;;;;;34.56;28.67;98093.63;4399924;32;20153;-83
2023/09/11 10:41:49;;;;;;;12.30;4.30;;;;;;;34.20;27.98;98087.87;4396920;32;20448;-82
2023/09/11 10:44:17;;;;;;;9.82;4.75;;;;;;;34.61;27.78;98091.94;4411899;32;20483;-82
2023/09/11 10:46:49;;;;;;;9.88;4.55;;;;;;;34.73;27.69;98084.00;4411819;32;20370;-82
2023/09/11 10:49:23;;;;;;;9.90;4.90;;;;;;;34.64;27.88;98091.50;4412903;32;20055;-82
2023/09/11 10:51:50;;;;;;;11.20;4.68;;;;;;;34.42;27.42;98092.91;4398700;32;20484;-82
2023/09/11 10:54:22;;;;;;;12.32;4.70;;;;;;;34.17;27.89;98080.28;4398943;32;20093;-82
2023/09/11 10:56:52;;;;;;;12.25;4.70;;;;;;;34.59;27.10;98083.31;4413763;32;20140;-82
2023/09/11 10:59:23;;;;;;;10.57;4.68;;;;;;;34.88;26.86;98081.88;4399877;32;20109;-82
2023/09/11 11:01:51;;;;;;;10.80;4.65;;;;;;;35.06;25.77;98073.84;4413414;32;20097;-82
2023/09/11 11:04:18;;;;;;;9.60;4.22;;;;;;;34.75;26.88;98076.56;4398683;32;20114;-82
2023/09/11 11:06:47;;;;;;;8.75;4.30;;;;;;;34.72;26.38;98085.88;4412084;32;20090;-83
2023/09/11 11:09:33;;;;;;;12.25;4.80;;;;;;;34.69;25.94;98080.97;4398688;32;20079;-82
2023/09/11 11:12:10;;;;;;;9.75;4.07;;;;;;;34.97;26.30;98079.69;4412044;32;20702;-83
2023/09/11 11:14:37;;;;;;;9.10;4.32;;;;;;;34.77;26.31;98078.00;4398037;32;20097;-82
2023/09/11 11:17:10;;;;;;;10.43;4.55;;;;;;;34.45;27.35;98084.44;4412674;32;20429;-82
2023/09/11 11:19:51;;;;;;;13.77;4.80;;;;;;;34.32;26.62;98077.28;4410199;32;20682;-82
2023/09/11 11:22:32;;;;;;;9.95;4.47;;;;;;;33.98;26.48;98077.69;4410074;32;20135;-83
2023/09/11 11:25:05;;;;;;;9.00;4.30;;;;;;;34.01;26.05;98083.44;4410158;32;20103;-83
2023/09/11 11:27:32;;;;;;;10.40;4.82;;;;;;;34.25;27.53;98083.75;4410120;32;20090;-77
2023/09/11 11:29:59;;;;;;;9.07;4.28;;;;;;;34.43;25.91;98079.28;4409408;32;20078;-77
2023/09/11 11:32:30;;;;;;;10.57;4.32;;;;;;;34.01;27.04;98075.41;4395402;32;20468;-77